Time;durP1;ratioP1;P1;durP2;ratioP2;P2;SDS_P1;SDS_P2;PMS_P1;PMS_P2;Temp;Humidity;BMP_temperature;BMP_pressure;BME280_temperature;BME280_humidity;BME280_pressure;Samples;Min_cycle;Max_cycle;Signal;HPM_P1;HPM_P2
2021/08/23 00:00:47;;;;;;;4.13;3.80;;;;;;;18.00;71.28;101907.72;5976409;29;20239;-49
2021/08/23 00:04:08;;;;;;;4.33;3.93;;;;;;;17.91;71.57;101897.38;5977334;29;20566;-49
2021/08/23 00:07:29;;;;;;;6.10;4.10;;;;;;;17.92;71.92;101899.13;5982036;29;20527;-46
2021/08/23 00:10:50;;;;;;;4.87;4.47;;;;;;;17.81;71.94;101896.69;5976842;29;20254;-50
2021/08/23 00:14:12;;;;;;;6.27;4.93;;;;;;;18.01;71.45;101898.94;5979538;29;20342;-50
2021/08/23 00:17:34;;;;;;;5.32;4.75;;;;;;;17.96;71.91;101894.66;5979304;29;20239;-48
2021/08/23 00:21:02;;;;;;;5.28;4.75;;;;;;;17.96;71.65;101892.03;5979819;29;20267;-52
2021/08/23 00:24:23;;;;;;;7.03;4.97;;;;;;;17.94;72.31;101896.47;5979669;29;20250;-51
2021/08/23 00:27:44;;;;;;;4.70;4.25;;;;;;;17.95;72.18;101883.25;5980878;29;20335;-49
2021/08/23 00:31:06;;;;;;;5.00;4.60;;;;;;;17.97;72.12;101893.75;5987201;29;20240;-53
2021/08/23 00:34:27;;;;;;;6.30;4.80;;;;;;;17.72;73.25;101886.38;5977871;29;20353;-52
2021/08/23 00:37:50;;;;;;;5.38;4.85;;;;;;;17.72;73.33;101886.38;5985301;29;20242;-49
2021/08/23 00:41:11;;;;;;;6.70;5.20;;;;;;;17.74;73.60;101892.47;5977163;29;20613;-50
2021/08/23 00:44:33;;;;;;;5.97;5.45;;;;;;;17.84;73.08;101896.66;5978425;29;20242;-48
2021/08/23 00:47:55;;;;;;;5.15;4.35;;;;;;;17.85;73.36;101901.00;5976258;29;20235;-47
2021/08/23 00:51:16;;;;;;;5.70;5.18;;;;;;;17.92;73.00;101898.28;5968690;29;20235;-48
2021/08/23 00:54:38;;;;;;;7.03;5.72;;;;;;;17.80;73.51;101899.38;5976511;29;21420;-52
2021/08/23 00:57:59;;;;;;;7.68;5.47;;;;;;;17.97;72.83;101896.38;5978012;29;20231;-52
2021/08/23 01:01:26;;;;;;;5.95;5.43;;;;;;;17.96;72.91;101900.78;5978049;29;20246;-48
2021/08/23 01:04:53;;;;;;;6.32;4.60;;;;;;;17.94;72.91;101896.47;5976256;29;20579;-49
2021/08/23 01:08:21;;;;;;;5.80;5.22;;;;;;;18.02;72.91;101899.78;5977016;29;20239;-50
2021/08/23 01:11:48;;;;;;;7.87;4.83;;;;;;;17.87;73.24;101896.59;5978840;29;21302;-52
2021/08/23 01:15:11;;;;;;;6.40;4.57;;;;;;;17.90;72.93;101899.16;5976421;29;20661;-49
2021/08/23 01:18:31;;;;;;;5.70;4.55;;;;;;;17.82;72.88;101903.69;5977048;29;20243;-50
2021/08/23 01:21:56;;;;;;;4.90;4.40;;;;;;;17.87;72.89;101912.41;5977693;29;20267;-51
2021/08/23 01:25:21;;;;;;;8.23;4.38;;;;;;;17.95;72.44;101909.63;5977273;29;22396;-49
2021/08/23 01:28:49;;;;;;;6.77;4.60;;;;;;;17.88;72.50;101913.28;5977799;29;20239;-49
2021/08/23 01:32:18;;;;;;;7.43;5.30;;;;;;;17.98;72.11;101909.53;5981505;29;20845;-51
2021/08/23 01:35:39;;;;;;;5.10;4.37;;;;;;;17.91;72.27;101915.81;5984270;29;20239;-49
2021/08/23 01:39:00;;;;;;;6.57;3.97;;;;;;;17.80;72.49;101918.69;5985886;29;20247;-52
2021/08/23 01:42:21;;;;;;;5.80;4.10;;;;;;;17.84;72.24;101915.09;5978806;29;20243;-53
2021/08/23 01:45:42;;;;;;;5.43;3.40;;;;;;;17.77;72.55;101926.63;5981997;29;21576;-52
2021/08/23 01:49:07;;;;;;;3.83;3.27;;;;;;;17.76;73.20;101927.56;5973206;29;20243;-51
2021/08/23 01:52:28;;;;;;;4.53;4.10;;;;;;;17.81;72.76;101925.66;5980605;29;20624;-47
2021/08/23 01:55:51;;;;;;;4.67;3.57;;;;;;;17.73;73.11;101927.59;5981774;29;20507;-48
2021/08/23 01:59:12;;;;;;;5.73;3.40;;;;;;;17.67;73.01;101930.38;5980951;29;20326;-49
2021/08/23 02:02:33;;;;;;;3.80;3.40;;;;;;;17.75;72.71;101928.44;5979730;29;20250;-51
2021/08/23 02:05:55;;;;;;;5.57;3.87;;;;;;;17.69;72.70;101931.22;5975329;29;20239;-50
2021/08/23 02:09:16;;;;;;;6.17;4.03;;;;;;;17.66;72.72;101939.16;5979100;29;20277;-50
2021/08/23 02:12:37;;;;;;;5.15;3.60;;;;;;;17.53;73.59;101935.94;5981769;29;20277;-54
2021/08/23 02:15:58;;;;;;;3.40;2.90;;;;;;;17.56;72.97;101941.13;5977738;29;20326;-52
2021/08/23 02:19:19;;;;;;;6.03;3.97;;;;;;;17.53;73.35;101938.56;5979126;29;20330;-48
2021/08/23 02:22:41;;;;;;;6.00;3.20;;;;;;;17.63;72.72;101942.75;5997385;29;20247;-48
2021/08/23 02:26:03;;;;;;;3.87;2.53;;;;;;;17.51;72.83;101945.63;5995096;29;20685;-48
2021/08/23 02:29:24;;;;;;;3.17;2.87;;;;;;;17.60;72.25;101942.81;5992475;29;20251;-46
2021/08/23 02:32:45;;;;;;;4.50;3.70;;;;;;;17.32;72.70;101953.88;5994964;29;20271;-48
2021/08/23 02:36:06;;;;;;;4.53;3.40;;;;;;;17.40;72.48;101952.88;5991436;29;20235;-53
2021/08/23 02:39:28;;;;;;;4.67;3.63;;;;;;;17.25;72.78;101961.91;5992314;29;20238;-50
2021/08/23 02:42:49;;;;;;;4.87;2.63;;;;;;;17.23;72.56;101961.94;5992485;29;20686;-50
2021/08/23 02:46:10;;;;;;;5.10;3.43;;;;;;;17.17;72.68;101953.31;5988081;29;20230;-51
2021/08/23 02:49:30;;;;;;;3.70;2.57;;;;;;;17.24;72.46;101952.31;5992669;29;20231;-51
2021/08/23 02:52:51;;;;;;;4.80;3.87;;;;;;;17.07;73.02;101950.84;5999061;29;20359;-53
2021/08/23 02:56:14;;;;;;;4.17;3.00;;;;;;;17.09;72.83;101961.34;5990989;29;20258;-48
2021/08/23 02:59:35;;;;;;;5.47;4.70;;;;;;;17.06;72.87;101964.91;5995929;29;20238;-50
2021/08/23 03:02:56;;;;;;;4.00;2.67;;;;;;;17.02;72.65;101963.22;5988784;29;20247;-46
2021/08/23 03:06:18;;;;;;;4.20;2.80;;;;;;;16.89;73.37;101964.34;5996761;29;20247;-53
2021/08/23 03:09:38;;;;;;;4.37;2.77;;;;;;;16.97;73.02;101965.06;5988543;29;20243;-49
2021/08/23 03:13:01;;;;;;;5.67;2.77;;;;;;;17.11;72.41;101972.72;5997140;29;20247;-49
2021/08/23 03:16:22;;;;;;;8.30;4.30;;;;;;;16.99;72.83;101978.19;5987875;29;20248;-46
2021/08/23 03:19:43;;;;;;;3.03;2.73;;;;;;;16.86;72.85;101978.38;5994372;29;20234;-46
2021/08/23 03:23:05;;;;;;;3.67;3.33;;;;;;;16.96;72.80;101986.13;5991967;29;20263;-50
2021/08/23 03:26:26;;;;;;;4.07;3.23;;;;;;;16.75;73.04;101985.59;5991996;29;20230;-51
2021/08/23 03:29:50;;;;;;;5.33;3.60;;;;;;;16.71;73.25;101984.75;5988787;29;20517;-49
2021/08/23 03:33:13;;;;;;;7.77;3.77;;;;;;;16.62;73.69;101984.91;5989267;29;20701;-50
2021/08/23 03:36:35;;;;;;;4.87;2.57;;;;;;;16.62;73.12;101989.28;5994318;29;20235;-49
2021/08/23 03:39:55;;;;;;;5.03;2.60;;;;;;;16.57;73.58;101996.38;5984712;29;20358;-47
2021/08/23 03:43:16;;;;;;;4.30;3.53;;;;;;;16.63;73.12;101988.38;5985255;29;20231;-48
2021/08/23 03:46:38;;;;;;;5.10;3.87;;;;;;;16.48;73.53;101997.41;5993048;29;20231;-46
2021/08/23 03:49:59;;;;;;;3.17;2.67;;;;;;;16.26;74.06;101995.06;5994460;29;20243;-53
2021/08/23 03:53:20;;;;;;;6.13;2.50;;;;;;;16.39;73.40;101998.38;5997646;29;20239;-52
2021/08/23 03:56:41;;;;;;;3.30;2.90;;;;;;;16.28;73.70;102006.41;5992632;29;20259;-49
2021/08/23 04:00:02;;;;;;;3.30;2.67;;;;;;;16.30;73.66;102001.13;5982753;29;20239;-51
2021/08/23 04:03:26;;;;;;;3.50;2.53;;;;;;;16.26;73.04;102016.06;5995926;29;20243;-47
2021/08/23 04:06:46;;;;;;;9.27;2.83;;;;;;;16.14;73.89;102019.75;5998566;29;20523;-49
2021/08/23 04:10:10;;;;;;;4.13;2.97;;;;;;;16.30;73.22;102020.44;5991954;29;20810;-51
2021/08/23 04:13:31;;;;;;;5.90;2.87;;;;;;;16.15;73.56;102020.63;5993336;29;20263;-51
2021/08/23 04:16:52;;;;;;;2.80;2.60;;;;;;;16.27;72.75;102030.97;5989377;29;20300;-46
2021/08/23 04:20:15;;;;;;;3.63;2.73;;;;;;;16.14;73.76;102039.91;5991924;29;20545;-50
2021/08/23 04:23:36;;;;;;;10.60;3.57;;;;;;;16.14;73.72;102032.88;5993094;29;20244;-48
2021/08/23 04:26:57;;;;;;;7.03;3.43;;;;;;;16.13;73.47;102035.56;5983006;29;20275;-48
2021/08/23 04:30:18;;;;;;;5.83;3.03;;;;;;;15.94;74.13;102032.28;5987327;29;20263;-49
2021/08/23 04:33:42;;;;;;;3.90;3.23;;;;;;;15.89;74.43;102045.44;5994641;29;20254;-49
2021/08/23 04:37:05;;;;;;;5.37;3.03;;;;;;;16.08;73.93;102045.25;5990529;29;20536;-46
2021/08/23 04:40:26;;;;;;;3.93;3.13;;;;;;;15.93;74.31;102047.16;5992778;29;20235;-47
2021/08/23 04:43:46;;;;;;;6.00;3.77;;;;;;;16.06;73.63;102047.88;5990982;29;20243;-47
2021/08/23 04:47:07;;;;;;;5.43;3.27;;;;;;;16.17;73.39;102057.38;5994205;29;20250;-53
2021/08/23 04:50:28;;;;;;;4.20;3.30;;;;;;;16.10;73.61;102064.50;5998093;29;20246;-47
2021/08/23 04:53:50;;;;;;;4.43;3.40;;;;;;;16.10;73.58;102061.84;5998424;29;20250;-50
2021/08/23 04:57:11;;;;;;;3.33;2.77;;;;;;;16.12;73.59;102071.44;5995243;29;20727;-49
2021/08/23 05:00:32;;;;;;;5.17;4.13;;;;;;;16.24;73.21;102077.44;5988503;29;20494;-52
2021/08/23 05:03:53;;;;;;;3.80;3.40;;;;;;;16.33;73.07;102074.72;5998424;29;20314;-48
2021/08/23 05:07:15;;;;;;;3.53;3.17;;;;;;;16.37;72.68;102084.28;5988902;29;20231;-49
2021/08/23 05:10:37;;;;;;;6.03;3.90;;;;;;;16.32;73.09;102081.75;6003888;29;20614;-53
2021/08/23 05:13:58;;;;;;;7.33;3.37;;;;;;;16.41;72.69;102095.66;5993411;29;20238;-51
2021/08/23 05:17:19;;;;;;;5.03;3.53;;;;;;;16.54;72.46;102102.47;5991935;29;20320;-52
2021/08/23 05:20:40;;;;;;;5.97;3.73;;;;;;;16.44;72.86;102106.09;6001611;29;20252;-52
2021/08/23 05:24:01;;;;;;;6.10;3.77;;;;;;;16.45;72.86;102107.84;5999779;29;20327;-48
2021/08/23 05:27:23;;;;;;;5.03;3.63;;;;;;;16.51;72.83;102113.88;6008912;29;20325;-51
2021/08/23 05:30:45;;;;;;;5.37;2.87;;;;;;;16.45;72.94;102113.13;6012055;29;20242;-46
2021/08/23 05:34:05;;;;;;;4.10;3.70;;;;;;;16.73;72.02;102114.50;6009789;29;20238;-49
2021/08/23 05:37:26;;;;;;;4.43;3.20;;;;;;;16.70;72.33;102119.78;5998562;29;20236;-47
2021/08/23 05:40:47;;;;;;;5.37;4.03;;;;;;;16.69;72.50;102120.69;5991355;29;20235;-50
2021/08/23 05:44:10;;;;;;;6.07;4.33;;;;;;;16.72;72.43;102117.13;6004249;29;20239;-49
2021/08/23 05:47:31;;;;;;;4.13;2.73;;;;;;;16.69;72.79;102112.78;6001452;29;20239;-50
2021/08/23 05:50:52;;;;;;;10.80;4.03;;;;;;;16.87;72.15;102126.59;6004036;29;20247;-51
2021/08/23 05:54:13;;;;;;;4.60;3.77;;;;;;;16.96;71.78;102125.59;6007935;29;20239;-52
2021/08/23 05:57:34;;;;;;;4.50;2.90;;;;;;;17.23;70.83;102122.53;6008453;29;20560;-48
2021/08/23 06:00:56;;;;;;;3.97;3.43;;;;;;;17.18;71.36;102120.88;6004950;29;20234;-54
2021/08/23 06:04:19;;;;;;;6.00;3.97;;;;;;;17.16;71.65;102125.28;5996231;29;20239;-49
2021/08/23 06:07:41;;;;;;;4.83;3.53;;;;;;;17.19;71.38;102125.25;6002679;29;20235;-49
2021/08/23 06:11:03;;;;;;;7.23;3.37;;;;;;;17.20;72.25;102129.63;6001786;29;20250;-52
2021/08/23 06:14:24;;;;;;;3.90;3.10;;;;;;;17.52;70.92;102126.44;6000335;29;20247;-48
2021/08/23 06:17:47;;;;;;;6.03;3.67;;;;;;;17.43;71.48;102138.00;6000499;29;20231;-48
2021/08/23 06:21:09;;;;;;;5.30;2.90;;;;;;;17.40;71.88;102138.06;6002012;29;20738;-53
2021/08/23 06:24:30;;;;;;;4.20;2.77;;;;;;;17.71;70.75;102142.78;6005027;29;20318;-52
2021/08/23 06:27:51;;;;;;;6.87;3.57;;;;;;;17.87;70.95;102149.56;6002149;29;20243;-54
2021/08/23 06:31:12;;;;;;;5.07;3.63;;;;;;;17.87;70.44;102146.94;6003892;29;20240;-52
2021/08/23 06:34:34;;;;;;;4.80;2.90;;;;;;;17.94;70.67;102147.69;6000877;29;20243;-52
2021/08/23 06:37:55;;;;;;;3.37;2.97;;;;;;;17.81;71.09;102152.25;6013150;29;20765;-52
2021/08/23 06:41:17;;;;;;;3.83;2.20;;;;;;;18.21;70.27;102159.47;6002026;29;20512;-51
2021/08/23 06:44:40;;;;;;;5.97;2.63;;;;;;;17.95;70.68;102148.53;5997660;29;21961;-53
2021/08/23 06:48:00;;;;;;;2.60;2.13;;;;;;;18.12;70.22;102167.53;5997671;29;20257;-53
2021/08/23 06:51:24;;;;;;;4.23;2.17;;;;;;;18.17;70.14;102170.97;5995566;29;20227;-47
2021/08/23 06:54:44;;;;;;;4.40;2.40;;;;;;;18.38;69.28;102179.34;5997130;29;20235;-52
2021/08/23 06:58:06;;;;;;;4.53;1.87;;;;;;;18.38;69.45;102171.44;6002832;29;20231;-53
2021/08/23 07:01:27;;;;;;;2.60;2.33;;;;;;;18.57;68.79;102178.09;5999180;29;20239;-53
2021/08/23 07:04:50;;;;;;;4.35;2.45;;;;;;;18.68;68.73;102183.97;5993484;29;20231;-52
2021/08/23 07:08:13;;;;;;;4.23;2.90;;;;;;;18.92;68.23;102179.13;6004232;29;20341;-50
2021/08/23 07:11:34;;;;;;;5.55;2.22;;;;;;;18.83;68.45;102179.31;5995224;29;20240;-50
2021/08/23 07:14:55;;;;;;;3.25;2.15;;;;;;;18.92;68.06;102183.53;6003345;29;20251;-48
2021/08/23 07:18:16;;;;;;;4.57;2.28;;;;;;;19.10;67.40;102188.41;6001218;29;20238;-49
2021/08/23 07:21:37;;;;;;;3.40;2.78;;;;;;;18.99;67.67;102188.63;5990227;29;20259;-53
2021/08/23 07:24:59;;;;;;;6.55;2.13;;;;;;;19.12;67.22;102198.94;6001316;29;20231;-52
2021/08/23 07:28:20;;;;;;;6.65;2.90;;;;;;;19.34;67.13;102202.78;6013247;29;20766;-51
2021/08/23 07:31:41;;;;;;;5.13;1.73;;;;;;;19.41;67.05;102198.25;6002064;29;20618;-50
2021/08/23 07:35:02;;;;;;;2.15;1.98;;;;;;;19.48;66.34;102199.81;6000933;29;20638;-46
2021/08/23 07:38:22;;;;;;;2.08;1.80;;;;;;;19.84;65.34;102200.69;6000547;29;20243;-54
2021/08/23 07:41:45;;;;;;;2.72;1.58;;;;;;;19.76;65.42;102202.66;6003673;29;20243;-53
2021/08/23 07:45:07;;;;;;;4.88;2.35;;;;;;;19.86;63.96;102208.59;6014464;29;20239;-53
2021/08/23 07:48:28;;;;;;;3.40;2.00;;;;;;;19.76;64.61;102210.59;6003878;29;20622;-51
2021/08/23 07:51:50;;;;;;;4.72;1.65;;;;;;;19.95;62.75;102220.69;5997802;29;20886;-51
2021/08/23 07:55:12;;;;;;;3.13;1.85;;;;;;;19.73;62.40;102215.94;6002174;29;20235;-50
2021/08/23 07:58:34;;;;;;;7.40;3.92;;;;;;;19.89;62.24;102218.19;6001728;29;20239;-47
2021/08/23 08:01:55;;;;;;;7.13;2.67;;;;;;;20.10;61.64;102220.28;5998206;29;20247;-51
2021/08/23 08:05:16;;;;;;;2.00;1.80;;;;;;;20.19;60.94;102224.47;5993651;29;20272;-50
2021/08/23 08:08:37;;;;;;;2.92;1.75;;;;;;;20.20;60.55;102229.72;5996092;29;20243;-53
2021/08/23 08:11:58;;;;;;;2.72;2.17;;;;;;;20.40;59.72;102238.88;6005450;29;20266;-51
2021/08/23 08:15:20;;;;;;;4.97;1.80;;;;;;;20.70;58.92;102241.59;5992555;29;20242;-54
2021/08/23 08:18:41;;;;;;;3.40;1.52;;;;;;;20.27;58.40;102243.63;6000644;29;20239;-48
2021/08/23 08:22:05;;;;;;;1.88;1.27;;;;;;;20.12;58.17;102249.34;5999417;29;20665;-52
2021/08/23 08:25:26;;;;;;;2.17;1.10;;;;;;;20.20;57.26;102242.94;6003157;29;20230;-50
2021/08/23 08:28:47;;;;;;;2.95;1.85;;;;;;;20.42;56.50;102255.59;5998809;29;20228;-52
2021/08/23 08:32:09;;;;;;;1.55;1.45;;;;;;;20.44;56.13;102251.13;5995342;29;20239;-52
2021/08/23 08:35:30;;;;;;;8.65;2.28;;;;;;;20.61;55.17;102256.84;6002249;29;20881;-52
2021/08/23 08:38:52;;;;;;;2.20;1.23;;;;;;;20.62;54.03;102265.63;6000488;29;20247;-49
2021/08/23 08:42:13;;;;;;;1.75;1.38;;;;;;;20.61;54.69;102261.28;5996664;29;20558;-52
2021/08/23 08:45:34;;;;;;;1.73;1.63;;;;;;;20.69;54.24;102267.22;6007967;29;20231;-49
2021/08/23 08:48:57;;;;;;;2.90;1.58;;;;;;;21.08;53.87;102263.44;6003984;29;20242;-52
2021/08/23 08:52:20;;;;;;;3.47;1.60;;;;;;;21.14;54.08;102265.91;5990911;29;20235;-52
2021/08/23 08:55:41;;;;;;;2.80;1.60;;;;;;;21.38;53.17;102275.75;5989458;29;20246;-54
2021/08/23 08:59:04;;;;;;;2.45;1.50;;;;;;;21.57;52.51;102275.19;5991626;29;20266;-49
2021/08/23 09:02:25;;;;;;;2.70;1.98;;;;;;;21.68;51.94;102282.78;5990861;29;20235;-48
2021/08/23 09:05:52;;;;;;;3.15;1.88;;;;;;;21.85;51.46;102287.53;5992135;29;20515;-53
2021/08/23 09:09:14;;;;;;;4.88;1.73;;;;;;;22.05;51.39;102284.22;5989831;29;20727;-53
2021/08/23 09:12:35;;;;;;;8.13;2.00;;;;;;;22.07;49.88;102288.53;5992028;29;20235;-53
2021/08/23 09:15:57;;;;;;;3.55;1.90;;;;;;;21.61;50.37;102284.75;5991752;29;20246;-49
2021/08/23 09:19:25;;;;;;;1.70;1.38;;;;;;;21.93;49.57;102281.06;5995884;29;20228;-50
2021/08/23 09:22:48;;;;;;;2.33;1.85;;;;;;;21.94;49.13;102276.63;5992737;29;20231;-52
2021/08/23 09:26:12;;;;;;;2.33;1.45;;;;;;;21.88;48.41;102287.44;5993668;29;20610;-51
2021/08/23 09:29:54;;;;;;;3.17;2.60;;;;;;;22.25;47.86;102288.88;5997794;29;20670;-50
2021/08/23 09:33:23;;;;;;;4.82;2.22;;;;;;;22.17;47.41;102284.66;5989009;29;20230;-49
2021/08/23 09:36:45;;;;;;;4.30;2.35;;;;;;;21.87;46.17;102297.19;5991312;29;20325;-49
2021/08/23 09:40:11;;;;;;;2.30;1.40;;;;;;;21.90;45.46;102290.91;5990829;29;20240;-54
2021/08/23 09:43:34;;;;;;;4.47;2.13;;;;;;;21.99;45.25;102295.91;5991926;29;20231;-47
2021/08/23 09:46:58;;;;;;;2.97;1.83;;;;;;;22.22;45.88;102282.72;5990517;29;20247;-54
2021/08/23 09:50:19;;;;;;;2.00;1.80;;;;;;;22.44;46.10;102295.25;5990401;29;20286;-51
2021/08/23 09:53:40;;;;;;;2.63;1.95;;;;;;;22.71;45.64;102292.53;5991005;29;20577;-49
2021/08/23 09:57:03;;;;;;;2.67;1.95;;;;;;;22.58;45.65;102294.75;5992056;29;20235;-52
2021/08/23 10:00:24;;;;;;;3.78;2.80;;;;;;;22.60;44.07;102298.22;5991539;29;20295;-48
2021/08/23 10:03:45;;;;;;;3.00;1.65;;;;;;;22.58;44.07;102295.63;5991632;29;20239;-53
2021/08/23 10:07:10;;;;;;;3.40;2.30;;;;;;;23.15;43.78;102300.66;5990070;29;20235;-52
2021/08/23 10:10:31;;;;;;;2.60;1.63;;;;;;;23.27;43.67;102296.66;5990218;29;20239;-52
2021/08/23 10:13:53;;;;;;;2.10;1.95;;;;;;;23.41;43.88;102307.59;5984534;29;20231;-51
2021/08/23 10:17:15;;;;;;;2.88;2.58;;;;;;;23.58;44.15;102315.75;5989884;29;20239;-51
2021/08/23 10:20:38;;;;;;;2.00;1.58;;;;;;;23.33;42.70;102315.88;5991515;29;20334;-54
2021/08/23 10:24:00;;;;;;;2.85;1.80;;;;;;;23.52;40.95;102320.47;5991146;29;22077;-53
2021/08/23 10:27:23;;;;;;;4.13;1.75;;;;;;;23.42;40.98;102327.06;5992491;29;20833;-51
2021/08/23 10:30:47;;;;;;;1.90;1.70;;;;;;;23.65;39.70;102324.38;5989404;29;20550;-51
2021/08/23 10:34:15;;;;;;;4.15;1.60;;;;;;;24.16;40.29;102304.53;5994205;29;20235;-55
2021/08/23 10:37:43;;;;;;;2.20;2.00;;;;;;;24.17;39.34;102314.25;6000301;29;20330;-52
2021/08/23 10:41:08;;;;;;;5.53;3.03;;;;;;;24.32;39.15;102317.19;5997375;29;20749;-47
2021/08/23 10:44:31;;;;;;;3.45;1.50;;;;;;;24.64;38.32;102306.94;5994632;29;20243;-48
2021/08/23 10:47:53;;;;;;;3.67;1.85;;;;;;;24.68;37.96;102311.19;5992373;29;20240;-52
2021/08/23 10:51:27;;;;;;;3.53;1.45;;;;;;;25.11;37.70;102322.56;5995212;29;20673;-53
2021/08/23 10:54:49;;;;;;;2.17;1.52;;;;;;;25.11;37.55;102322.56;5998137;29;20247;-52
2021/08/23 10:58:11;;;;;;;2.20;1.83;;;;;;;25.42;37.55;102322.00;6001951;29;20251;-48
2021/08/23 11:01:33;;;;;;;2.95;1.63;;;;;;;25.57;36.64;102312.41;5997780;29;20232;-49
2021/08/23 11:04:57;;;;;;;2.13;1.02;;;;;;;24.98;37.21;102310.72;6003912;29;20239;-47
2021/08/23 11:08:19;;;;;;;3.63;2.25;;;;;;;25.35;37.47;102323.22;5990081;29;20235;-47
2021/08/23 11:11:41;;;;;;;2.97;1.30;;;;;;;24.86;36.74;102318.34;6000083;29;20235;-49
2021/08/23 11:15:14;;;;;;;4.38;2.13;;;;;;;25.01;38.13;102326.56;6003219;29;20722;-53
2021/08/23 11:18:41;;;;;;;2.50;1.33;;;;;;;24.42;37.92;102325.63;6006048;29;20231;-48
2021/08/23 11:22:04;;;;;;;3.95;1.90;;;;;;;24.94;37.79;102329.50;5995390;29;20231;-49
2021/08/23 11:25:34;;;;;;;5.30;2.65;;;;;;;25.29;37.03;102327.03;6002981;29;20630;-53
2021/08/23 11:28:55;;;;;;;1.67;1.52;;;;;;;25.99;35.84;102326.38;5999122;29;20601;-50
2021/08/23 11:32:16;;;;;;;1.60;1.42;;;;;;;25.98;35.20;102330.84;6001018;29;20235;-51
2021/08/23 11:35:38;;;;;;;3.58;1.52;;;;;;;25.13;35.79;102324.19;6001224;29;20242;-51
2021/08/23 11:39:10;;;;;;;4.07;3.65;;;;;;;25.37;34.61;102332.00;5998132;29;20236;-54
2021/08/23 11:42:31;;;;;;;1.65;1.50;;;;;;;25.03;35.73;102332.69;6005276;29;20243;-51
2021/08/23 11:45:52;;;;;;;1.65;1.55;;;;;;;25.57;34.80;102340.84;6001237;29;20276;-48
2021/08/23 11:49:13;;;;;;;2.17;1.50;;;;;;;25.30;35.72;102338.56;6003702;29;20243;-52
2021/08/23 11:52:34;;;;;;;3.92;1.70;;;;;;;28.73;30.01;102338.75;5999295;29;20259;-49
2021/08/23 11:56:05;;;;;;;1.92;1.60;;;;;;;30.55;26.40;102333.06;5997115;29;20248;-50
2021/08/23 11:59:26;;;;;;;2.25;1.77;;;;;;;33.88;22.60;102338.03;6003215;29;20239;-49
2021/08/23 12:02:47;;;;;;;3.33;1.73;;;;;;;34.56;21.29;102334.94;5997998;29;20231;-49
2021/08/23 12:06:09;;;;;;;1.30;1.17;;;;;;;34.15;21.10;102339.41;5996312;29;20644;-52
2021/08/23 12:09:31;;;;;;;1.80;1.30;;;;;;;32.21;23.21;102338.91;5998211;29;20406;-51
2021/08/23 12:13:05;;;;;;;3.00;1.70;;;;;;;33.55;21.86;102344.41;5998532;29;20280;-51
2021/08/23 12:16:35;;;;;;;1.65;1.55;;;;;;;35.03;20.55;102338.00;5995439;29;20244;-53
2021/08/23 12:20:04;;;;;;;2.08;1.70;;;;;;;35.25;19.50;102339.66;5994076;29;20234;-49
2021/08/23 12:23:25;;;;;;;2.10;1.45;;;;;;;35.56;19.29;102333.28;6001133;29;20242;-49
2021/08/23 12:26:51;;;;;;;5.88;1.20;;;;;;;32.32;22.44;102343.47;5999617;29;20259;-51
2021/08/23 12:30:25;;;;;;;2.50;1.42;;;;;;;29.72;25.73;102340.47;5992110;29;20787;-51
2021/08/23 12:33:47;;;;;;;2.80;1.70;;;;;;;30.70;24.35;102341.03;6000085;29;20238;-50
2021/08/23 12:37:09;;;;;;;1.23;1.10;;;;;;;31.83;23.26;102341.78;5993459;29;20629;-48
2021/08/23 12:40:30;;;;;;;1.70;1.05;;;;;;;33.23;20.94;102344.34;6000878;29;20242;-48
2021/08/23 12:43:51;;;;;;;4.05;1.70;;;;;;;33.78;20.70;102338.97;5994082;29;20299;-50
2021/08/23 12:47:14;;;;;;;1.40;1.30;;;;;;;30.67;24.29;102339.41;5995206;29;20243;-50
2021/08/23 12:50:34;;;;;;;0.93;0.82;;;;;;;32.67;21.97;102337.16;5997632;29;20246;-49
2021/08/23 12:53:56;;;;;;;2.20;1.13;;;;;;;34.29;20.05;102339.03;5995489;29;20243;-49
2021/08/23 12:57:17;;;;;;;3.17;1.52;;;;;;;35.90;17.99;102343.69;6001560;29;20235;-50
2021/08/23 13:00:38;;;;;;;1.17;1.08;;;;;;;35.37;18.85;102343.09;5992893;29;20625;-49
2021/08/23 13:04:01;;;;;;;2.53;1.40;;;;;;;35.03;18.15;102339.84;5994390;29;20227;-48
2021/08/23 13:07:21;;;;;;;3.00;1.30;;;;;;;33.10;20.47;102345.38;5994319;29;20613;-52
2021/08/23 13:10:44;;;;;;;1.35;0.90;;;;;;;33.94;19.33;102345.59;5998945;29;20235;-50
2021/08/23 13:14:05;;;;;;;1.38;1.17;;;;;;;34.90;18.93;102331.97;5985034;29;20239;-49
2021/08/23 13:17:26;;;;;;;7.85;2.25;;;;;;;34.32;18.82;102344.19;6006338;29;20243;-47
2021/08/23 13:20:48;;;;;;;1.40;1.27;;;;;;;34.26;19.42;102354.72;5992381;29;20255;-49
2021/08/23 13:24:09;;;;;;;2.47;1.63;;;;;;;36.23;18.12;102336.97;5999832;29;20224;-53
2021/08/23 13:27:31;;;;;;;4.25;1.35;;;;;;;35.05;19.02;102354.97;6010103;29;20255;-48
2021/08/23 13:30:52;;;;;;;3.75;1.92;;;;;;;36.01;18.05;102351.69;5996517;29;20232;-50
2021/08/23 13:34:13;;;;;;;1.40;1.30;;;;;;;35.06;18.41;102353.09;6008383;29;21464;-51
2021/08/23 13:37:37;;;;;;;1.27;1.17;;;;;;;36.49;17.14;102358.88;6006932;29;20263;-51
2021/08/23 13:40:58;;;;;;;2.42;1.75;;;;;;;35.90;17.83;102362.66;5996845;29;20251;-53
2021/08/23 13:44:18;;;;;;;1.27;1.08;;;;;;;34.78;18.96;102354.69;5999420;29;20572;-51
2021/08/23 13:47:40;;;;;;;1.75;0.90;;;;;;;35.56;17.84;102361.22;5996159;29;20231;-50
2021/08/23 13:51:01;;;;;;;1.67;1.52;;;;;;;35.64;18.48;102358.63;6005626;29;20559;-51
2021/08/23 13:54:24;;;;;;;2.00;1.50;;;;;;;33.97;19.67;102360.72;5997268;29;20615;-48
2021/08/23 13:57:45;;;;;;;8.15;1.52;;;;;;;34.71;19.41;102360.66;6004396;29;20238;-52
2021/08/23 14:01:07;;;;;;;1.60;1.50;;;;;;;34.79;19.06;102351.88;5995252;29;20248;-52
2021/08/23 14:04:31;;;;;;;1.80;1.20;;;;;;;34.06;19.91;102359.94;5999167;29;20243;-51
2021/08/23 14:07:54;;;;;;;1.90;1.23;;;;;;;33.96;20.35;102363.56;6011490;29;20231;-51
2021/08/23 14:11:16;;;;;;;1.13;1.02;;;;;;;33.21;21.02;102362.53;5997079;29;20235;-51
2021/08/23 14:14:37;;;;;;;3.92;1.60;;;;;;;32.98;20.92;102357.13;5986266;29;20248;-50
2021/08/23 14:17:58;;;;;;;1.58;1.30;;;;;;;32.56;21.29;102360.41;6008491;29;20508;-51
2021/08/23 14:21:19;;;;;;;2.22;1.70;;;;;;;31.10;22.83;102362.41;5997371;29;20247;-52
2021/08/23 14:24:40;;;;;;;1.95;1.48;;;;;;;30.08;24.42;102365.88;5986742;29;20238;-50
2021/08/23 14:28:02;;;;;;;1.67;1.30;;;;;;;29.83;24.21;102371.06;6001809;29;20246;-49
2021/08/23 14:31:23;;;;;;;1.38;1.27;;;;;;;29.94;24.26;102377.56;5995407;29;20231;-51
2021/08/23 14:34:44;;;;;;;1.10;1.00;;;;;;;30.36;24.56;102365.75;6008580;29;20234;-50
2021/08/23 14:38:05;;;;;;;1.92;1.55;;;;;;;29.54;24.32;102375.63;6001606;29;20239;-51
2021/08/23 14:41:26;;;;;;;1.20;1.10;;;;;;;29.42;24.53;102373.75;5999652;29;20685;-51
2021/08/23 14:44:48;;;;;;;1.80;1.40;;;;;;;29.02;25.87;102370.88;6001403;29;20560;-53
2021/08/23 14:48:09;;;;;;;1.50;1.40;;;;;;;28.63;26.46;102373.28;5996236;29;20569;-50
2021/08/23 14:51:30;;;;;;;1.70;1.30;;;;;;;28.44;25.58;102381.56;5994893;29;20322;-50
2021/08/23 14:54:51;;;;;;;1.27;1.05;;;;;;;28.28;25.41;102383.41;6001673;29;20243;-51
2021/08/23 14:58:12;;;;;;;1.73;1.63;;;;;;;28.48;25.57;102383.09;5998442;29;20243;-48
2021/08/23 15:01:34;;;;;;;1.10;0.95;;;;;;;28.40;25.90;102388.06;6001573;29;20243;-51
2021/08/23 15:04:56;;;;;;;0.95;0.88;;;;;;;28.08;26.12;102380.09;5997045;29;20318;-51
2021/08/23 15:08:17;;;;;;;1.70;1.58;;;;;;;28.15;26.59;102382.41;5995698;29;20239;-48
2021/08/23 15:11:38;;;;;;;1.70;1.40;;;;;;;28.24;26.93;102384.53;5998135;29;20232;-49
2021/08/23 15:14:59;;;;;;;3.67;1.35;;;;;;;28.10;26.52;102388.03;5996274;29;20256;-54
2021/08/23 15:18:21;;;;;;;2.55;1.20;;;;;;;27.94;27.04;102382.72;5988273;29;20239;-52
2021/08/23 15:21:43;;;;;;;4.47;1.50;;;;;;;27.17;27.58;102391.47;5988310;29;20235;-48
2021/08/23 15:25:04;;;;;;;1.05;0.95;;;;;;;27.71;27.59;102393.88;5995724;29;20243;-53
2021/08/23 15:28:26;;;;;;;1.98;1.60;;;;;;;28.19;26.58;102389.31;5995406;29;20736;-49
2021/08/23 15:31:46;;;;;;;1.88;1.70;;;;;;;27.46;27.99;102395.25;5991273;29;20247;-51
2021/08/23 15:35:10;;;;;;;1.85;1.75;;;;;;;26.59;30.45;102392.75;5996302;29;20240;-50
2021/08/23 15:38:31;;;;;;;3.03;2.72;;;;;;;25.96;32.17;102403.91;5994104;29;20365;-51